Time;durP1;ratioP1;P1;durP2;ratioP2;P2;SDS_P1;SDS_P2;PMS_P1;PMS_P2;Temp;Humidity;BMP_temperature;BMP_pressure;BME280_temperature;BME280_humidity;BME280_pressure;Samples;Min_cycle;Max_cycle;Signal;HPM_P1;HPM_P2
2022/12/08 00:00:38;;;;;;;28.10;18.87;;;5.50;1.00;;;;;;5109126;28;20211;-86
2022/12/08 00:03:03;;;;;;;29.03;19.27;;;5.50;1.00;;;;;;5114410;28;20182;-86
2022/12/08 00:10:57;;;;;;;28.17;20.42;;;5.40;1.00;;;;;;5101455;28;20224;-86
2022/12/08 00:13:23;;;;;;;27.70;18.60;;;5.40;1.00;;;;;;5113217;28;20180;-86
2022/12/08 00:15:48;;;;;;;28.57;19.50;;;5.40;1.00;;;;;;5110530;28;20204;-86
2022/12/08 00:18:14;;;;;;;31.13;20.17;;;5.40;1.00;;;;;;5111333;28;20248;-87
2022/12/08 00:20:39;;;;;;;40.03;20.30;;;5.40;1.00;;;;;;5106660;28;20223;-86
2022/12/08 00:23:05;;;;;;;35.10;20.87;;;5.40;1.00;;;;;;5113691;28;20180;-87
2022/12/08 00:25:33;;;;;;;36.20;22.53;;;5.40;1.00;;;;;;5101075;28;20241;-84
2022/12/08 00:27:59;;;;;;;39.30;22.75;;;5.40;1.00;;;;;;5100578;28;20176;-88
2022/12/08 00:30:24;;;;;;;38.80;23.90;;;5.40;1.00;;;;;;5098834;28;20184;-86
2022/12/08 00:32:50;;;;;;;34.70;23.63;;;5.40;1.00;;;;;;5114822;28;20206;-85
2022/12/08 00:35:15;;;;;;;38.60;22.80;;;5.40;1.00;;;;;;5113751;28;20206;-86
2022/12/08 00:37:41;;;;;;;36.37;23.77;;;5.40;1.00;;;;;;5104788;28;20188;-86
2022/12/08 00:40:07;;;;;;;40.00;24.57;;;5.40;1.00;;;;;;5103466;28;20211;-87
2022/12/08 00:42:32;;;;;;;40.20;23.42;;;5.40;1.00;;;;;;5109259;28;20188;-86
2022/12/08 00:44:58;;;;;;;35.53;24.13;;;5.40;1.00;;;;;;5110090;28;20218;-87
2022/12/08 00:47:23;;;;;;;36.53;20.53;;;5.40;1.00;;;;;;5102759;28;20171;-87
2022/12/08 00:49:49;;;;;;;32.43;22.53;;;5.40;1.00;;;;;;5110891;28;20183;-86
2022/12/08 00:52:14;;;;;;;38.93;23.20;;;5.40;1.00;;;;;;5104698;28;20179;-86
2022/12/08 00:54:40;;;;;;;38.77;23.67;;;5.40;1.00;;;;;;5110763;28;20703;-86
2022/12/08 00:57:05;;;;;;;36.10;23.03;;;5.40;1.00;;;;;;5110884;28;20180;-86
2022/12/08 00:59:31;;;;;;;36.83;21.80;;;5.40;1.00;;;;;;5105380;28;20217;-87
2022/12/08 01:01:57;;;;;;;35.20;21.80;;;5.40;1.00;;;;;;5106605;27;20182;-86
2022/12/08 01:04:22;;;;;;;39.00;24.00;;;5.40;1.00;;;;;;5103937;28;20207;-88
2022/12/08 01:06:48;;;;;;;41.30;25.40;;;5.40;1.00;;;;;;5103487;28;20606;-87
2022/12/08 01:09:14;;;;;;;30.10;21.37;;;5.40;1.00;;;;;;5109429;28;20199;-85
2022/12/08 01:11:41;;;;;;;31.27;20.80;;;5.40;1.00;;;;;;5107361;28;20188;-86
2022/12/08 01:14:06;;;;;;;34.13;22.77;;;5.40;1.00;;;;;;5104774;28;20183;-86
2022/12/08 01:16:34;;;;;;;34.10;21.83;;;5.40;1.00;;;;;;5101697;28;20574;-87
2022/12/08 01:19:00;;;;;;;34.95;22.15;;;5.40;1.00;;;;;;5099900;28;20204;-86
2022/12/08 01:21:26;;;;;;;30.38;19.58;;;5.40;1.00;;;;;;5100150;28;20190;-86
2022/12/08 01:23:52;;;;;;;29.60;20.80;;;5.40;1.00;;;;;;5099155;28;20187;-85
2022/12/08 01:26:18;;;;;;;30.50;19.52;;;5.40;1.00;;;;;;5109766;28;20210;-87
2022/12/08 01:28:45;;;;;;;32.22;20.80;;;5.50;1.00;;;;;;5103080;28;20179;-87
2022/12/08 01:31:19;;;;;;;31.52;20.58;;;5.50;1.00;;;;;;5099195;28;20179;-86
2022/12/08 01:33:45;;;;;;;31.48;20.13;;;5.50;1.00;;;;;;5099106;28;20187;-85
2022/12/08 01:36:31;;;;;;;33.90;19.20;;;5.50;1.00;;;;;;5093874;28;20220;-87
2022/12/08 01:38:59;;;;;;;30.13;19.15;;;5.50;1.00;;;;;;5097672;28;20265;-86
2022/12/08 01:41:27;;;;;;;33.35;18.98;;;5.50;1.00;;;;;;5111974;28;20187;-87
2022/12/08 01:44:03;;;;;;;27.67;18.45;;;5.50;1.00;;;;;;5103552;27;20179;-86
2022/12/08 01:46:31;;;;;;;26.23;17.35;;;5.50;1.00;;;;;;5102061;28;20286;-86
2022/12/08 01:49:15;;;;;;;24.80;18.25;;;5.50;1.00;;;;;;5106160;28;20192;-86
2022/12/08 01:52:01;;;;;;;20.40;14.55;;;5.50;1.00;;;;;;5104545;28;20220;-86
2022/12/08 01:54:32;;;;;;;18.95;14.13;;;5.50;1.00;;;;;;5108866;28;20194;-85
2022/12/08 01:57:06;;;;;;;23.27;13.95;;;5.50;99.90;;;;;;5108465;28;20261;-86
2022/12/08 01:59:37;;;;;;;22.88;14.40;;;5.50;99.90;;;;;;5109577;28;20268;-85
2022/12/08 02:02:03;;;;;;;17.40;12.32;;;5.50;99.90;;;;;;5104533;28;20722;-87
2022/12/08 02:04:28;;;;;;;16.53;12.07;;;5.50;99.90;;;;;;5100143;28;20237;-86
2022/12/08 02:06:54;;;;;;;21.07;13.23;;;5.40;99.90;;;;;;5112510;28;20179;-88
2022/12/08 02:09:20;;;;;;;19.63;12.23;;;5.40;99.90;;;;;;5106199;28;20219;-86
2022/12/08 02:11:47;;;;;;;19.17;12.55;;;5.40;99.90;;;;;;5102647;28;20259;-86
2022/12/08 02:14:13;;;;;;;18.77;13.20;;;5.40;99.90;;;;;;5108018;28;20262;-85
2022/12/08 02:16:41;;;;;;;18.45;13.48;;;5.40;99.90;;;;;;5108944;28;20203;-86
2022/12/08 02:19:34;;;;;;;18.17;13.05;;;5.40;99.90;;;;;;5108439;28;20212;-85
2022/12/08 02:22:09;;;;;;;17.00;13.05;;;5.40;99.90;;;;;;5099003;28;20180;-86
2022/12/08 02:24:55;;;;;;;15.35;12.68;;;5.50;99.90;;;;;;5105936;28;20661;-86
2022/12/08 02:27:43;;;;;;;20.88;13.82;;;5.50;99.90;;;;;;5108073;28;20191;-86
2022/12/08 02:30:18;;;;;;;17.95;13.77;;;5.50;99.90;;;;;;5104089;28;20213;-86
2022/12/08 02:33:12;;;;;;;17.02;12.65;;;5.50;99.90;;;;;;5103948;28;20271;-86
2022/12/08 02:35:44;;;;;;;19.85;14.20;;;5.50;99.90;;;;;;5109686;28;20210;-87
2022/12/08 02:38:32;;;;;;;20.98;14.50;;;5.50;99.90;;;;;;5106774;28;20215;-87
2022/12/08 02:41:24;;;;;;;18.83;14.10;;;5.50;99.90;;;;;;5109579;28;20183;-86
2022/12/08 02:44:05;;;;;;;17.23;13.20;;;5.50;99.90;;;;;;5106273;28;20180;-86
2022/12/08 02:46:36;;;;;;;22.15;13.85;;;5.50;99.90;;;;;;5097833;28;20207;-86
2022/12/08 02:49:02;;;;;;;20.58;13.60;;;5.50;99.90;;;;;;5109532;28;20184;-86
2022/12/08 02:51:27;;;;;;;17.00;13.10;;;5.50;99.90;;;;;;5121975;28;20188;-86
2022/12/08 02:53:54;;;;;;;18.90;12.80;;;5.50;99.90;;;;;;5106290;28;20190;-86
2022/12/08 02:56:59;;;;;;;21.52;14.27;;;5.50;99.90;;;;;;5104579;28;20551;-85
2022/12/08 02:59:38;;;;;;;21.88;13.35;;;5.50;99.90;;;;;;5102541;28;20223;-86
2022/12/08 03:02:22;;;;;;;20.23;13.43;;;5.50;99.90;;;;;;5101836;28;20168;-86
2022/12/08 03:04:56;;;;;;;19.95;14.10;;;5.50;99.90;;;;;;5103984;28;20196;-87
2022/12/08 03:07:45;;;;;;;20.20;13.63;;;5.50;99.90;;;;;;5107707;28;20175;-87
2022/12/08 03:10:18;;;;;;;20.25;13.95;;;5.40;99.90;;;;;;5107377;28;20179;-87
2022/12/08 03:13:14;;;;;;;19.35;15.52;;;5.40;99.90;;;;;;5109987;28;20185;-87
2022/12/08 03:15:41;;;;;;;18.60;14.38;;;5.50;1.00;;;;;;5112475;28;20199;-87
2022/12/08 03:18:11;;;;;;;19.15;13.38;;;5.50;1.00;;;;;;5106922;28;20183;-87
2022/12/08 03:20:39;;;;;;;19.25;14.90;;;5.50;1.00;;;;;;5108152;28;20211;-87
2022/12/08 03:23:08;;;;;;;19.55;13.82;;;5.50;1.00;;;;;;5105153;28;20205;-86
2022/12/08 03:25:39;;;;;;;21.70;14.50;;;5.50;1.00;;;;;;5107452;27;20251;-86
2022/12/08 03:28:05;;;;;;;20.95;13.85;;;5.50;1.00;;;;;;5098054;28;20176;-86
2022/12/08 03:30:35;;;;;;;19.50;14.07;;;5.50;1.00;;;;;;5114818;28;20639;-86
2022/12/08 03:33:09;;;;;;;20.15;13.57;;;5.50;99.90;;;;;;5115702;28;20194;-86
2022/12/08 03:35:38;;;;;;;17.88;12.80;;;5.50;99.90;;;;;;5114979;28;20302;-87
2022/12/08 03:38:12;;;;;;;19.35;12.75;;;5.50;1.00;;;;;;5095431;28;20204;-87
2022/12/08 03:40:39;;;;;;;20.35;13.20;;;5.50;1.00;;;;;;5111144;27;20239;-86
2022/12/08 03:43:04;;;;;;;19.45;13.90;;;5.50;99.90;;;;;;5113453;28;20202;-86
2022/12/08 03:45:30;;;;;;;21.33;14.50;;;5.50;99.90;;;;;;5105667;28;20634;-86
2022/12/08 03:47:55;;;;;;;18.60;12.40;;;5.50;99.90;;;;;;5110681;27;20258;-85
2022/12/08 03:50:21;;;;;;;18.70;13.30;;;5.50;99.90;;;;;;5114021;27;20781;-86
2022/12/08 03:52:47;;;;;;;19.80;12.93;;;5.50;99.90;;;;;;5104023;28;20184;-85
2022/12/08 03:55:13;;;;;;;21.65;14.40;;;5.50;99.90;;;;;;5113401;28;20211;-86
2022/12/08 03:57:39;;;;;;;19.95;13.23;;;5.50;1.00;;;;;;5114038;27;20191;-86
2022/12/08 04:00:06;;;;;;;21.17;13.80;;;5.50;1.00;;;;;;5113353;28;20252;-87
2022/12/08 04:02:32;;;;;;;19.45;12.82;;;5.50;1.00;;;;;;5098993;28;20182;-86
2022/12/08 04:04:57;;;;;;;20.10;13.70;;;5.50;1.00;;;;;;5111582;28;20284;-87
2022/12/08 04:07:23;;;;;;;22.07;13.30;;;5.50;1.00;;;;;;5110332;28;20191;-86
2022/12/08 04:09:48;;;;;;;27.00;16.30;;;5.50;1.00;;;;;;5099863;28;20191;-85
2022/12/08 04:12:14;;;;;;;24.13;14.30;;;5.50;1.00;;;;;;5115522;28;20228;-87
2022/12/08 04:14:39;;;;;;;27.20;16.10;;;5.50;1.00;;;;;;5111896;28;20191;-86
2022/12/08 04:17:05;;;;;;;26.70;15.20;;;5.50;1.00;;;;;;5105330;28;20187;-86
2022/12/08 04:19:30;;;;;;;23.77;16.93;;;5.50;1.00;;;;;;5106804;28;20713;-86
2022/12/08 04:21:56;;;;;;;26.37;16.10;;;5.50;1.00;;;;;;5105242;28;20659;-86
2022/12/08 04:24:21;;;;;;;24.57;14.93;;;5.50;1.00;;;;;;5109408;28;20172;-87
2022/12/08 04:26:48;;;;;;;27.80;16.37;;;5.50;1.00;;;;;;5104041;28;20629;-86
2022/12/08 04:29:14;;;;;;;30.77;18.52;;;5.50;1.00;;;;;;5113949;28;20179;-86
2022/12/08 04:31:39;;;;;;;31.50;18.10;;;5.50;1.00;;;;;;5103043;28;20742;-86
2022/12/08 04:34:05;;;;;;;37.23;20.43;;;5.50;1.00;;;;;;5111804;28;20183;-86
2022/12/08 04:36:31;;;;;;;37.83;20.83;;;5.50;1.00;;;;;;5103968;28;20231;-87
2022/12/08 04:38:56;;;;;;;30.67;19.13;;;5.50;1.00;;;;;;5106457;28;20216;-87
2022/12/08 04:41:22;;;;;;;37.93;20.00;;;5.50;1.00;;;;;;5106883;28;20235;-87
2022/12/08 04:43:47;;;;;;;34.43;21.20;;;5.50;1.00;;;;;;5101939;28;20770;-86
2022/12/08 04:46:13;;;;;;;34.67;21.10;;;5.50;1.00;;;;;;5104713;28;20214;-85
2022/12/08 04:48:39;;;;;;;37.53;21.10;;;5.50;1.00;;;;;;5112447;28;20262;-86
2022/12/08 04:51:05;;;;;;;34.47;21.38;;;5.50;1.00;;;;;;5104494;28;20306;-87
2022/12/08 04:53:31;;;;;;;31.63;21.40;;;5.50;1.00;;;;;;5109840;28;20204;-86
2022/12/08 04:55:56;;;;;;;39.23;20.53;;;5.50;1.00;;;;;;5113227;28;20453;-86
2022/12/08 04:58:22;;;;;;;32.10;20.10;;;5.50;1.00;;;;;;5104390;28;20188;-86
2022/12/08 05:00:47;;;;;;;33.67;20.90;;;5.50;1.00;;;;;;5109237;28;20698;-87
2022/12/08 05:03:14;;;;;;;41.90;23.33;;;5.50;1.00;;;;;;5104250;28;20180;-87
2022/12/08 05:05:41;;;;;;;30.90;20.42;;;5.40;1.00;;;;;;5103665;28;20723;-85
2022/12/08 05:08:08;;;;;;;35.42;23.08;;;5.40;1.00;;;;;;5108000;28;20187;-86
2022/12/08 05:10:34;;;;;;;41.00;20.90;;;5.40;1.00;;;;;;5110462;28;20176;-86
2022/12/08 05:13:00;;;;;;;34.23;20.50;;;5.40;1.00;;;;;;5104820;28;20643;-86
2022/12/08 05:15:25;;;;;;;40.73;21.97;;;5.40;1.00;;;;;;5103196;28;20733;-83
2022/12/08 05:17:51;;;;;;;33.93;21.63;;;5.40;1.00;;;;;;5108985;28;20479;-86
2022/12/08 05:20:17;;;;;;;40.73;21.30;;;5.40;1.00;;;;;;5111645;28;20199;-87
2022/12/08 05:22:42;;;;;;;34.37;21.73;;;5.40;1.00;;;;;;5108976;28;20207;-87
2022/12/08 05:25:08;;;;;;;36.53;21.27;;;5.40;99.90;;;;;;5102055;28;20230;-86
2022/12/08 05:27:33;;;;;;;30.70;20.70;;;5.40;99.90;;;;;;5099276;28;20233;-86
2022/12/08 05:29:59;;;;;;;34.20;20.67;;;5.40;99.90;;;;;;5113419;28;20182;-86
2022/12/08 05:32:24;;;;;;;34.27;21.80;;;5.40;99.90;;;;;;5113176;28;20191;-87
2022/12/08 05:34:50;;;;;;;34.50;21.13;;;5.50;99.90;;;;;;5108747;28;20195;-84
2022/12/08 05:37:15;;;;;;;35.20;21.93;;;5.40;99.90;;;;;;5093755;28;20620;-84
2022/12/08 05:39:41;;;;;;;36.23;21.43;;;5.40;99.90;;;;;;5095842;28;20225;-85
2022/12/08 05:42:06;;;;;;;33.57;21.70;;;5.40;99.90;;;;;;5108894;28;20188;-85
2022/12/08 05:44:32;;;;;;;30.07;19.40;;;5.40;99.90;;;;;;5106465;28;20184;-85
2022/12/08 05:46:57;;;;;;;31.47;20.20;;;5.40;99.90;;;;;;5110047;28;20183;-86
2022/12/08 05:49:23;;;;;;;34.00;21.93;;;5.40;99.90;;;;;;5110198;28;20210;-87
2022/12/08 05:51:48;;;;;;;33.07;21.17;;;5.40;99.90;;;;;;5102427;28;20651;-85
2022/12/08 05:54:14;;;;;;;31.63;21.70;;;5.40;99.90;;;;;;5096253;28;20608;-85
2022/12/08 05:56:39;;;;;;;35.33;21.47;;;5.40;99.90;;;;;;5105637;28;20603;-85
2022/12/08 05:59:06;;;;;;;32.53;18.43;;;5.40;99.90;;;;;;5107041;28;20627;-85
2022/12/08 06:01:31;;;;;;;31.00;21.27;;;5.40;99.90;;;;;;5107843;28;20701;-85
2022/12/08 06:03:59;;;;;;;37.23;21.70;;;5.40;99.90;;;;;;5108086;28;20184;-84
2022/12/08 06:06:25;;;;;;;40.83;19.98;;;5.40;99.90;;;;;;5098075;28;20207;-87
2022/12/08 06:08:51;;;;;;;35.28;21.75;;;5.40;99.90;;;;;;5099304;28;20237;-84
2022/12/08 06:11:28;;;;;;;34.80;20.52;;;5.40;99.90;;;;;;5108874;28;20181;-84
2022/12/08 06:13:55;;;;;;;37.45;21.98;;;5.40;99.90;;;;;;5100771;28;20210;-86
2022/12/08 06:16:21;;;;;;;34.28;20.98;;;5.40;99.90;;;;;;5107509;28;20195;-85
2022/12/08 06:18:47;;;;;;;35.03;21.87;;;5.40;99.90;;;;;;5100795;28;20664;-84
2022/12/08 06:21:15;;;;;;;37.23;21.73;;;5.40;99.90;;;;;;5106563;28;20441;-84
2022/12/08 06:23:41;;;;;;;32.45;20.70;;;5.40;99.90;;;;;;5100083;28;20437;-84
2022/12/08 06:26:11;;;;;;;33.97;20.50;;;5.40;99.90;;;;;;5102148;28;20204;-84
2022/12/08 06:28:37;;;;;;;34.53;19.33;;;5.40;99.90;;;;;;5106371;28;20245;-84
2022/12/08 06:31:23;;;;;;;39.28;20.17;;;5.40;99.90;;;;;;5100682;28;20184;-85
2022/12/08 06:33:49;;;;;;;30.42;20.33;;;5.40;99.90;;;;;;5111495;28;20195;-85
2022/12/08 06:36:18;;;;;;;38.25;21.52;;;5.40;99.90;;;;;;5116612;28;20206;-85
2022/12/08 06:38:44;;;;;;;33.38;18.70;;;5.30;99.90;;;;;;5107847;28;20561;-86
2022/12/08 06:41:10;;;;;;;32.93;20.00;;;5.30;99.90;;;;;;5104288;28;20243;-85
2022/12/08 06:43:36;;;;;;;31.73;18.55;;;5.30;99.90;;;;;;5104089;28;20660;-85
2022/12/08 06:46:05;;;;;;;31.40;19.93;;;5.30;99.90;;;;;;5111786;27;20210;-86
2022/12/08 06:48:30;;;;;;;30.80;19.02;;;5.20;99.90;;;;;;5101060;28;20187;-85
2022/12/08 06:50:56;;;;;;;34.40;18.33;;;5.20;99.90;;;;;;5105634;28;20221;-87
2022/12/08 06:53:21;;;;;;;29.97;18.30;;;5.20;99.90;;;;;;5112254;28;20273;-86
2022/12/08 06:55:52;;;;;;;31.10;19.00;;;5.20;99.90;;;;;;5098733;28;20257;-86
2022/12/08 06:58:18;;;;;;;33.50;19.65;;;5.20;99.90;;;;;;5107359;28;20216;-86
2022/12/08 07:00:44;;;;;;;33.17;18.88;;;5.20;99.90;;;;;;5104096;28;20222;-86
2022/12/08 07:03:11;;;;;;;38.20;21.07;;;5.20;99.90;;;;;;5109024;28;20180;-85
2022/12/08 07:05:37;;;;;;;30.00;20.10;;;5.10;99.90;;;;;;5103299;28;20203;-86
2022/12/08 07:08:04;;;;;;;30.73;17.00;;;5.10;99.90;;;;;;5104628;28;20180;-85
2022/12/08 07:10:30;;;;;;;27.38;16.25;;;5.10;99.90;;;;;;5107419;28;20206;-86
2022/12/08 07:12:55;;;;;;;26.80;17.33;;;5.10;99.90;;;;;;5100426;28;20179;-85
2022/12/08 07:15:21;;;;;;;25.27;16.37;;;5.20;99.90;;;;;;5102377;28;20560;-86
2022/12/08 07:17:47;;;;;;;31.40;19.07;;;5.10;99.90;;;;;;5105004;28;20187;-84
2022/12/08 07:20:13;;;;;;;27.13;16.00;;;5.20;99.90;;;;;;5101725;28;20231;-85
2022/12/08 07:22:38;;;;;;;33.33;18.20;;;5.20;99.90;;;;;;5103870;28;20444;-85
2022/12/08 07:25:04;;;;;;;34.00;17.23;;;5.30;99.90;;;;;;5108905;28;20461;-85
2022/12/08 07:27:30;;;;;;;32.53;19.08;;;5.30;99.90;;;;;;5099163;28;20267;-85
2022/12/08 07:29:55;;;;;;;30.80;17.43;;;5.30;99.90;;;;;;5114592;28;20270;-85
2022/12/08 07:32:21;;;;;;;39.87;20.00;;;5.30;99.90;;;;;;5110338;28;20196;-85
2022/12/08 07:34:46;;;;;;;34.43;18.73;;;5.30;99.90;;;;;;5096877;28;20222;-83
2022/12/08 07:37:12;;;;;;;33.97;20.10;;;5.30;99.90;;;;;;5101329;28;20176;-84
2022/12/08 07:39:37;;;;;;;33.67;20.47;;;5.30;99.90;;;;;;5103096;28;20700;-83
2022/12/08 07:42:03;;;;;;;34.90;21.17;;;5.30;99.90;;;;;;5111861;28;20263;-84
2022/12/08 07:44:28;;;;;;;30.00;19.23;;;5.30;99.90;;;;;;5110733;28;20235;-83
2022/12/08 07:46:54;;;;;;;35.80;19.87;;;5.30;99.90;;;;;;5113416;28;20179;-84
2022/12/08 07:49:19;;;;;;;33.93;21.33;;;5.30;99.90;;;;;;5110020;28;20232;-83
2022/12/08 07:51:45;;;;;;;32.37;19.70;;;5.30;99.90;;;;;;5109818;28;20230;-83
2022/12/08 07:54:11;;;;;;;35.50;20.40;;;5.30;99.90;;;;;;5105108;28;20290;-84
2022/12/08 07:56:37;;;;;;;32.30;19.77;;;5.30;99.90;;;;;;5101724;28;20216;-83
2022/12/08 07:59:03;;;;;;;30.77;19.67;;;5.30;99.90;;;;;;5103704;28;20300;-84
2022/12/08 08:01:31;;;;;;;28.03;17.00;;;5.30;99.90;;;;;;5109113;28;20421;-84
2022/12/08 08:04:03;;;;;;;30.08;17.02;;;5.30;99.90;;;;;;5114016;28;20612;-85
2022/12/08 08:06:29;;;;;;;28.30;17.17;;;5.30;99.90;;;;;;5103727;28;20683;-84
2022/12/08 08:08:55;;;;;;;27.73;17.00;;;5.30;99.90;;;;;;5104458;28;20186;-84
2022/12/08 08:11:21;;;;;;;27.07;15.53;;;5.30;99.90;;;;;;5110631;28;20184;-85
2022/12/08 08:13:47;;;;;;;29.20;16.07;;;5.40;99.90;;;;;;5102945;28;20176;-84
2022/12/08 08:16:13;;;;;;;29.67;17.63;;;5.40;99.90;;;;;;5101797;28;20529;-85
2022/12/08 08:18:39;;;;;;;29.20;17.87;;;5.40;99.90;;;;;;5112550;28;20300;-84
2022/12/08 08:21:05;;;;;;;30.13;16.27;;;5.40;99.90;;;;;;5109006;28;20211;-84
2022/12/08 08:23:31;;;;;;;27.85;17.10;;;5.40;99.90;;;;;;5095090;28;20178;-85
2022/12/08 08:26:01;;;;;;;25.93;15.07;;;5.40;99.90;;;;;;5107705;28;20255;-84
2022/12/08 08:28:27;;;;;;;26.60;16.42;;;5.50;99.90;;;;;;5115611;28;21127;-83
2022/12/08 08:30:53;;;;;;;33.65;15.43;;;5.50;99.90;;;;;;5114103;28;20183;-84
2022/12/08 08:33:19;;;;;;;30.60;15.87;;;5.50;99.90;;;;;;5102653;28;20264;-85
2022/12/08 08:35:44;;;;;;;22.17;14.70;;;5.50;99.90;;;;;;5108730;28;21066;-85
2022/12/08 08:38:10;;;;;;;22.60;14.40;;;5.50;99.00;;;;;;5102661;28;20178;-85
2022/12/08 08:40:35;;;;;;;20.40;13.60;;;5.60;89.20;;;;;;5104455;28;20233;-85
2022/12/08 08:43:02;;;;;;;28.60;15.83;;;5.60;17.90;;;;;;5098988;28;20647;-84
2022/12/08 08:45:28;;;;;;;26.80;14.90;;;5.50;20.20;;;;;;5104974;28;20203;-84
2022/12/08 08:47:55;;;;;;;21.97;13.63;;;5.60;31.40;;;;;;5108002;28;20225;-82
2022/12/08 08:50:21;;;;;;;23.35;14.57;;;5.60;1.00;;;;;;5100016;28;20196;-87
2022/12/08 08:52:47;;;;;;;22.33;14.93;;;5.60;1.00;;;;;;5100699;28;20529;-88
2022/12/08 08:55:12;;;;;;;24.37;14.50;;;5.70;1.00;;;;;;5103529;28;20196;-87
2022/12/08 08:57:38;;;;;;;20.60;14.33;;;5.70;1.00;;;;;;5101498;28;20194;-86
2022/12/08 09:00:05;;;;;;;18.07;12.83;;;5.70;1.00;;;;;;5098761;28;20587;-87
2022/12/08 09:02:31;;;;;;;21.95;13.20;;;5.70;1.00;;;;;;5099668;28;20204;-87
2022/12/08 09:04:56;;;;;;;16.83;11.47;;;5.80;1.00;;;;;;5097355;28;20203;-87
2022/12/08 09:07:22;;;;;;;16.63;11.00;;;5.80;1.00;;;;;;5093266;28;20245;-86
2022/12/08 09:09:48;;;;;;;18.70;10.17;;;5.80;1.00;;;;;;5097757;28;20266;-86
2022/12/08 09:12:13;;;;;;;18.67;11.10;;;5.80;1.00;;;;;;5101738;28;20196;-87
2022/12/08 09:14:39;;;;;;;16.83;10.40;;;5.80;99.90;;;;;;5097053;28;20180;-87
2022/12/08 09:17:05;;;;;;;15.50;9.97;;;5.80;99.90;;;;;;5107244;28;20179;-86
2022/12/08 09:19:31;;;;;;;12.80;9.32;;;5.90;99.90;;;;;;5099866;28;20295;-85
2022/12/08 09:21:57;;;;;;;16.40;11.00;;;5.80;99.90;;;;;;5099294;28;20271;-86
2022/12/08 09:24:22;;;;;;;18.87;11.37;;;5.80;99.90;;;;;;5095991;28;20504;-86
2022/12/08 09:26:48;;;;;;;19.33;9.90;;;5.80;81.80;;;;;;5101751;28;20200;-87
2022/12/08 09:29:14;;;;;;;18.37;11.47;;;5.80;99.90;;;;;;5102291;28;20171;-86
2022/12/08 09:31:40;;;;;;;19.37;10.93;;;5.80;99.90;;;;;;5094328;28;20191;-87
2022/12/08 09:34:06;;;;;;;19.98;11.40;;;5.90;93.70;;;;;;5093544;28;20176;-87
2022/12/08 09:36:32;;;;;;;21.23;11.80;;;5.90;94.40;;;;;;5098458;28;20218;-87
2022/12/08 09:38:57;;;;;;;22.03;13.37;;;6.00;99.90;;;;;;5100343;28;20188;-87
2022/12/08 09:41:44;;;;;;;20.03;11.87;;;6.10;2.80;;;;;;5099702;28;20426;-87
2022/12/08 09:44:24;;;;;;;22.02;13.77;;;6.10;1.00;;;;;;5099851;28;20199;-87
2022/12/08 09:46:51;;;;;;;19.25;12.70;;;6.20;1.00;;;;;;5101494;28;20302;-87
2022/12/08 09:49:31;;;;;;;18.63;13.02;;;6.30;1.00;;;;;;5101495;28;20569;-87
2022/12/08 09:51:58;;;;;;;25.55;13.52;;;6.30;80.70;;;;;;5105653;28;20751;-88
2022/12/08 09:54:34;;;;;;;27.60;13.35;;;6.30;23.60;;;;;;5106746;28;20270;-87
2022/12/08 09:57:06;;;;;;;22.83;12.10;;;6.40;1.00;;;;;;5107786;28;20186;-87
2022/12/08 09:59:33;;;;;;;20.77;12.95;;;6.50;1.00;;;;;;5092053;28;20257;-87
2022/12/08 10:02:00;;;;;;;15.88;10.77;;;6.60;99.90;;;;;;5106742;28;20551;-87
2022/12/08 10:04:32;;;;;;;17.92;10.93;;;6.70;1.00;;;;;;5097876;28;20176;-87
2022/12/08 10:07:24;;;;;;;20.98;11.40;;;6.80;99.90;;;;;;5105141;27;20176;-87
2022/12/08 10:10:31;;;;;;;16.88;10.90;;;6.80;72.00;;;;;;5107475;28;20184;-87
2022/12/08 10:13:15;;;;;;;16.58;10.70;;;6.80;1.00;;;;;;5025182;28;20661;-87
2022/12/08 10:15:45;;;;;;;20.77;10.27;;;6.90;1.00;;;;;;5100178;28;20605;-87
2022/12/08 10:18:17;;;;;;;18.17;10.73;;;6.90;1.00;;;;;;5108035;28;20726;-86
2022/12/08 10:20:47;;;;;;;17.73;10.70;;;6.90;99.90;;;;;;5099641;28;20204;-87
2022/12/08 10:23:24;;;;;;;19.75;11.07;;;6.90;99.90;;;;;;5112402;28;20176;-86
2022/12/08 10:26:01;;;;;;;20.05;10.85;;;6.80;36.30;;;;;;5100895;28;20282;-86
2022/12/08 10:28:26;;;;;;;18.42;11.88;;;6.70;50.80;;;;;;5103132;28;20588;-87
2022/12/08 10:30:52;;;;;;;19.83;11.60;;;6.80;99.90;;;;;;5092097;28;20231;-87
2022/12/08 10:33:20;;;;;;;21.17;11.47;;;6.80;99.90;;;;;;5092415;28;20553;-86
2022/12/08 10:35:51;;;;;;;16.48;11.90;;;6.80;99.90;;;;;;5117583;28;20250;-86
2022/12/08 10:38:30;;;;;;;18.00;12.13;;;6.70;99.90;;;;;;5091032;28;20348;-86
2022/12/08 10:41:03;;;;;;;15.93;11.68;;;6.60;99.90;;;;;;5096593;28;20230;-86
2022/12/08 10:43:30;;;;;;;17.23;11.23;;;6.60;99.90;;;;;;5104046;28;20232;-85
2022/12/08 10:46:25;;;;;;;20.35;11.57;;;6.50;1.00;;;;;;5099433;28;20561;-86
2022/12/08 10:48:52;;;;;;;17.90;11.05;;;6.60;1.00;;;;;;5100497;28;20179;-85
2022/12/08 10:51:39;;;;;;;15.75;10.80;;;6.60;1.00;;;;;;5102527;28;20187;-86
2022/12/08 10:54:23;;;;;;;14.43;10.45;;;6.60;99.90;;;;;;5097081;28;20266;-86
2022/12/08 10:56:54;;;;;;;22.90;12.32;;;6.70;99.90;;;;;;5095026;28;20203;-86
2022/12/08 10:59:19;;;;;;;21.77;11.43;;;6.80;99.90;;;;;;5093373;28;20227;-86
2022/12/08 11:01:49;;;;;;;17.73;11.90;;;6.90;99.90;;;;;;5094448;28;20216;-86
2022/12/08 11:04:21;;;;;;;22.88;11.77;;;7.00;52.90;;;;;;5105762;28;20651;-87
2022/12/08 11:06:48;;;;;;;19.20;12.70;;;7.10;1.00;;;;;;5095733;28;20227;-85
2022/12/08 11:09:17;;;;;;;17.52;11.30;;;7.20;99.90;;;;;;5094018;28;20184;-87
2022/12/08 11:11:50;;;;;;;21.55;12.88;;;7.30;99.90;;;;;;5097780;28;20211;-87
2022/12/08 11:14:29;;;;;;;23.23;12.95;;;7.40;61.90;;;;;;5093651;28;20184;-87
2022/12/08 11:17:05;;;;;;;19.05;12.27;;;7.60;1.00;;;;;;5096249;28;20179;-88
2022/12/08 11:19:30;;;;;;;18.80;12.27;;;7.80;1.00;;;;;;5103357;28;20295;-86
2022/12/08 11:21:56;;;;;;;17.63;12.50;;;8.00;99.90;;;;;;5102287;28;20532;-87
2022/12/08 11:24:28;;;;;;;19.47;13.20;;;8.10;1.00;;;;;;5099273;28;20644;-87
2022/12/08 11:27:00;;;;;;;22.70;11.70;;;8.20;1.00;;;;;;5101496;28;20271;-87
2022/12/08 11:29:27;;;;;;;20.03;11.50;;;8.50;1.00;;;;;;5109653;28;20433;-87
2022/12/08 11:32:15;;;;;;;21.27;11.20;;;8.80;99.90;;;;;;5108055;28;20971;-86
2022/12/08 11:34:53;;;;;;;19.20;11.97;;;9.10;99.90;;;;;;5103470;28;20447;-87
2022/12/08 11:37:31;;;;;;;21.20;11.70;;;9.30;99.90;;;;;;5104969;28;20456;-87
2022/12/08 11:40:01;;;;;;;18.43;10.47;;;9.90;20.30;;;;;;5106111;28;20488;-86
2022/12/08 11:42:33;;;;;;;17.23;11.47;;;10.40;1.00;;;;;;5103987;28;20437;-87
2022/12/08 11:45:06;;;;;;;19.20;10.73;;;10.60;1.00;;;;;;5097747;28;20834;-87
2022/12/08 11:47:57;;;;;;;17.53;11.13;;;10.90;1.00;;;;;;5097466;28;20949;-87
2022/12/08 11:50:31;;;;;;;14.27;9.57;;;11.00;1.00;;;;;;5096053;28;20454;-87
2022/12/08 11:52:58;;;;;;;17.97;10.83;;;11.30;1.00;;;;;;5105296;28;20438;-87
2022/12/08 11:55:42;;;;;;;19.20;9.17;;;11.50;99.90;;;;;;5103450;28;20465;-86
2022/12/08 11:58:19;;;;;;;15.10;8.87;;;11.80;99.90;;;;;;5102756;28;20466;-87
2022/12/08 12:00:45;;;;;;;23.73;11.30;;;11.80;99.90;;;;;;5103621;28;20461;-86
2022/12/08 12:03:28;;;;;;;15.37;9.40;;;11.70;99.90;;;;;;5106772;28;20933;-88
2022/12/08 12:06:14;;;;;;;16.67;10.63;;;11.60;99.90;;;;;;5092692;28;20442;-87
2022/12/08 12:08:52;;;;;;;15.93;10.67;;;11.50;99.90;;;;;;5101637;28;20832;-86
2022/12/08 12:14:49;;;;;;;14.30;10.17;;;11.30;99.90;;;;;;5095307;28;20812;-86
2022/12/08 12:17:30;;;;;;;14.90;9.70;;;11.30;99.90;;;;;;5102531;28;20433;-86
2022/12/08 12:20:01;;;;;;;13.77;9.00;;;10.90;99.90;;;;;;5099907;28;20461;-87
2022/12/08 12:22:33;;;;;;;14.73;9.40;;;11.00;99.90;;;;;;5105937;28;20792;-86
2022/12/08 12:24:59;;;;;;;15.43;9.83;;;11.20;99.90;;;;;;5101986;28;20462;-86
2022/12/08 12:27:39;;;;;;;15.03;9.13;;;11.60;99.90;;;;;;5102895;28;20446;-87
2022/12/08 12:30:17;;;;;;;16.87;9.67;;;12.00;99.90;;;;;;5109523;28;20499;-87
2022/12/08 12:32:50;;;;;;;15.03;8.50;;;12.10;99.90;;;;;;5108724;28;20417;-87
2022/12/08 12:35:26;;;;;;;16.53;9.63;;;12.20;99.90;;;;;;5099762;28;20465;-87
2022/12/08 12:41:04;;;;;;;14.60;9.03;;;12.00;99.90;;;;;;5095651;28;20445;-87
2022/12/08 12:43:35;;;;;;;14.63;9.47;;;11.50;99.90;;;;;;5093706;28;20982;-86
2022/12/08 12:46:22;;;;;;;13.60;8.83;;;11.20;99.90;;;;;;5094435;28;20845;-87
2022/12/08 12:48:49;;;;;;;14.13;8.57;;;10.80;99.90;;;;;;5103699;28;20854;-87
2022/12/08 12:51:34;;;;;;;11.27;8.57;;;10.40;99.90;;;;;;5102507;28;20512;-85
2022/12/08 12:54:25;;;;;;;14.53;9.10;;;10.00;99.90;;;;;;5097792;28;20429;-86
2022/12/08 12:57:11;;;;;;;15.30;7.80;;;9.60;99.90;;;;;;5100196;28;20816;-86
2022/12/08 12:59:47;;;;;;;11.50;7.40;;;9.30;99.90;;;;;;5083577;28;20448;-86
2022/12/08 13:02:31;;;;;;;12.80;8.40;;;9.10;99.90;;;;;;5110085;28;20889;-86
2022/12/08 13:04:58;;;;;;;18.43;8.77;;;8.90;99.90;;;;;;5105765;28;20465;-87